Time;durP1;ratioP1;P1;durP2;ratioP2;P2;SDS_P1;SDS_P2;PMS_P1;PMS_P2;Temp;Humidity;BMP_temperature;BMP_pressure;BME280_temperature;BME280_humidity;BME280_pressure;Samples;Min_cycle;Max_cycle;Signal;HPM_P1;HPM_P2
2023/05/09 00:01:35;;;;;;;81.32;52.33;;;;;;;;;;4451198;32;20113;-67
2023/05/09 00:04:01;;;;;;;78.97;49.70;;;;;;;;;;4452046;32;20366;-67
2023/05/09 00:06:26;;;;;;;84.25;50.50;;;;;;;;;;4452838;32;20024;-68
2023/05/09 00:08:52;;;;;;;81.70;47.45;;;;;;;;;;4452910;32;20089;-67
2023/05/09 00:11:17;;;;;;;79.80;49.10;;;;;;;;;;4453215;32;20068;-67
2023/05/09 00:13:43;;;;;;;75.75;47.55;;;;;;;;;;4452741;32;20021;-68
2023/05/09 00:16:09;;;;;;;70.45;46.03;;;;;;;;;;4438631;32;20413;-68
2023/05/09 00:18:35;;;;;;;72.07;46.97;;;;;;;;;;4457876;32;20055;-68
2023/05/09 00:21:01;;;;;;;72.32;44.70;;;;;;;;;;4452470;32;20106;-67
2023/05/09 00:23:27;;;;;;;70.28;45.22;;;;;;;;;;4452745;32;20456;-68
2023/05/09 00:25:52;;;;;;;67.47;41.97;;;;;;;;;;4452713;32;20021;-68
2023/05/09 00:28:17;;;;;;;69.57;43.70;;;;;;;;;;4452964;32;20129;-68
2023/05/09 00:30:42;;;;;;;69.75;42.35;;;;;;;;;;4454547;32;20060;-68
2023/05/09 00:33:07;;;;;;;64.47;41.72;;;;;;;;;;4452231;32;20048;-67
2023/05/09 00:35:33;;;;;;;63.05;41.30;;;;;;;;;;4452938;32;20444;-68
2023/05/09 00:37:58;;;;;;;57.05;38.10;;;;;;;;;;4451768;32;20158;-67
2023/05/09 00:40:24;;;;;;;55.53;39.20;;;;;;;;;;4451541;32;20065;-67
2023/05/09 00:42:50;;;;;;;57.72;39.42;;;;;;;;;;4450652;32;20418;-67
2023/05/09 00:45:15;;;;;;;52.03;36.13;;;;;;;;;;4452487;32;20072;-68
2023/05/09 00:47:40;;;;;;;55.00;36.20;;;;;;;;;;4452502;32;20436;-68
2023/05/09 00:50:06;;;;;;;51.55;36.45;;;;;;;;;;4452823;32;20018;-68
2023/05/09 00:52:32;;;;;;;47.30;33.63;;;;;;;;;;4454488;32;20082;-68
2023/05/09 00:54:57;;;;;;;47.38;32.80;;;;;;;;;;4467862;32;20040;-68
2023/05/09 00:57:22;;;;;;;50.03;34.72;;;;;;;;;;4468226;32;20021;-68
2023/05/09 00:59:47;;;;;;;44.53;33.05;;;;;;;;;;4451719;32;20043;-68
2023/05/09 01:02:14;;;;;;;46.95;34.03;;;;;;;;;;4467590;32;20026;-68
2023/05/09 01:04:39;;;;;;;43.33;31.20;;;;;;;;;;4467323;32;20020;-68
2023/05/09 01:07:10;;;;;;;41.85;31.35;;;;;;;;;;4468016;32;20099;-68
2023/05/09 01:09:56;;;;;;;44.65;32.20;;;;;;;;;;4467965;32;20065;-68
2023/05/09 01:12:36;;;;;;;42.05;30.35;;;;;;;;;;4433970;32;20108;-68
2023/05/09 01:15:04;;;;;;;43.28;31.55;;;;;;;;;;4466544;32;20032;-67
2023/05/09 01:17:33;;;;;;;48.20;32.83;;;;;;;;;;4466419;32;20045;-68
2023/05/09 01:20:12;;;;;;;40.03;30.10;;;;;;;;;;4466255;32;20024;-68
2023/05/09 01:22:40;;;;;;;40.92;32.25;;;;;;;;;;4468118;32;20017;-68
2023/05/09 01:25:32;;;;;;;45.00;31.92;;;;;;;;;;4467919;32;20021;-68
2023/05/09 01:28:07;;;;;;;44.47;29.00;;;;;;;;;;4466999;32;20418;-68
2023/05/09 01:30:33;;;;;;;43.40;30.30;;;;;;;;;;4466932;32;20044;-68
2023/05/09 01:32:59;;;;;;;47.72;31.73;;;;;;;;;;4466174;32;20029;-68
2023/05/09 01:35:25;;;;;;;44.15;31.52;;;;;;;;;;4468166;32;20024;-67
2023/05/09 01:37:50;;;;;;;41.47;29.77;;;;;;;;;;4468675;32;20032;-68
2023/05/09 01:40:16;;;;;;;38.47;28.83;;;;;;;;;;4468351;32;20017;-68
2023/05/09 01:42:43;;;;;;;42.97;29.58;;;;;;;;;;4466443;32;20428;-68
2023/05/09 01:45:09;;;;;;;42.03;31.65;;;;;;;;;;4467672;32;20089;-68
2023/05/09 01:47:34;;;;;;;45.45;30.12;;;;;;;;;;4453367;32;20030;-68
2023/05/09 01:50:00;;;;;;;44.00;31.15;;;;;;;;;;4456197;32;20041;-68
2023/05/09 01:52:25;;;;;;;46.30;30.77;;;;;;;;;;4455315;32;20113;-68
2023/05/09 01:54:51;;;;;;;45.65;30.30;;;;;;;;;;4462283;32;20096;-68
2023/05/09 01:57:17;;;;;;;41.78;29.42;;;;;;;;;;4470413;32;20514;-68
2023/05/09 01:59:43;;;;;;;40.90;28.17;;;;;;;;;;4470519;32;20040;-68
2023/05/09 02:02:09;;;;;;;37.38;27.27;;;;;;;;;;4469868;32;20017;-68
2023/05/09 02:04:35;;;;;;;44.47;29.35;;;;;;;;;;4469195;32;20080;-68
2023/05/09 02:07:00;;;;;;;45.10;30.88;;;;;;;;;;4469813;32;20025;-68
2023/05/09 02:09:26;;;;;;;41.47;28.50;;;;;;;;;;4469396;32;20076;-68
2023/05/09 02:11:51;;;;;;;42.92;27.40;;;;;;;;;;4468455;32;20077;-68
2023/05/09 02:14:16;;;;;;;39.35;26.80;;;;;;;;;;4456102;32;20028;-68
2023/05/09 02:16:41;;;;;;;41.15;27.20;;;;;;;;;;4470046;32;20041;-68
2023/05/09 02:19:07;;;;;;;36.28;25.90;;;;;;;;;;4469470;32;20093;-68
2023/05/09 02:21:32;;;;;;;37.03;26.67;;;;;;;;;;4454661;32;20470;-68
2023/05/09 02:23:57;;;;;;;37.75;24.83;;;;;;;;;;4460464;32;20402;-69
2023/05/09 02:26:27;;;;;;;36.33;25.30;;;;;;;;;;4452957;32;20056;-68
2023/05/09 02:28:52;;;;;;;31.33;23.35;;;;;;;;;;4453957;32;20109;-66
2023/05/09 02:31:19;;;;;;;33.65;23.77;;;;;;;;;;4454273;32;20025;-67
2023/05/09 02:33:45;;;;;;;31.02;22.70;;;;;;;;;;4453501;32;20085;-67
2023/05/09 02:36:11;;;;;;;34.95;22.85;;;;;;;;;;4452639;32;20034;-67
2023/05/09 02:38:36;;;;;;;32.47;22.00;;;;;;;;;;4454071;32;20315;-68
2023/05/09 02:41:01;;;;;;;32.35;22.73;;;;;;;;;;4438685;32;20038;-69
2023/05/09 02:43:27;;;;;;;27.35;21.02;;;;;;;;;;4454423;32;20021;-68
2023/05/09 02:45:52;;;;;;;31.30;21.42;;;;;;;;;;4454079;32;20071;-67
2023/05/09 02:48:17;;;;;;;26.90;19.10;;;;;;;;;;4453483;32;20120;-67
2023/05/09 02:50:43;;;;;;;27.05;19.95;;;;;;;;;;4454436;32;20018;-68
2023/05/09 02:53:08;;;;;;;27.98;19.17;;;;;;;;;;4464889;32;20025;-67
2023/05/09 02:55:33;;;;;;;30.88;19.12;;;;;;;;;;4468175;32;20036;-68
2023/05/09 02:57:59;;;;;;;26.00;18.30;;;;;;;;;;4469331;32;20448;-68
2023/05/09 03:00:24;;;;;;;30.77;19.83;;;;;;;;;;4469884;32;20037;-68
2023/05/09 03:02:50;;;;;;;27.83;20.05;;;;;;;;;;4455593;32;20349;-68
2023/05/09 03:05:15;;;;;;;28.85;19.58;;;;;;;;;;4469615;32;20083;-68
2023/05/09 03:07:40;;;;;;;26.37;19.87;;;;;;;;;;4468229;32;20047;-68
2023/05/09 03:10:06;;;;;;;31.85;20.45;;;;;;;;;;4469290;32;20021;-68
2023/05/09 03:12:31;;;;;;;32.80;19.87;;;;;;;;;;4469740;32;20084;-68
2023/05/09 03:14:56;;;;;;;26.42;19.23;;;;;;;;;;4467706;32;20025;-68
2023/05/09 03:17:22;;;;;;;28.70;20.35;;;;;;;;;;4469292;32;20402;-69
2023/05/09 03:19:47;;;;;;;28.70;19.67;;;;;;;;;;4454950;32;20090;-68
2023/05/09 03:22:12;;;;;;;27.75;17.90;;;;;;;;;;4463597;32;20370;-68
2023/05/09 03:24:37;;;;;;;26.25;20.42;;;;;;;;;;4452794;32;20022;-68
2023/05/09 03:27:03;;;;;;;29.37;19.47;;;;;;;;;;4452827;32;20017;-66
2023/05/09 03:29:28;;;;;;;25.02;19.75;;;;;;;;;;4451974;32;20169;-67
2023/05/09 03:31:53;;;;;;;29.07;19.50;;;;;;;;;;4453696;32;20044;-67
2023/05/09 03:34:18;;;;;;;26.90;20.15;;;;;;;;;;4452105;32;20165;-67
2023/05/09 03:36:43;;;;;;;31.67;21.17;;;;;;;;;;4451858;32;20034;-67
2023/05/09 03:39:09;;;;;;;30.30;21.00;;;;;;;;;;4453221;32;20044;-67
2023/05/09 03:41:35;;;;;;;28.60;21.85;;;;;;;;;;4453590;32;20051;-67
2023/05/09 03:44:00;;;;;;;32.03;22.13;;;;;;;;;;4453643;32;20018;-67
2023/05/09 03:46:25;;;;;;;30.67;22.73;;;;;;;;;;4439239;32;20502;-68
2023/05/09 03:48:50;;;;;;;33.28;23.48;;;;;;;;;;4452450;32;20437;-67
2023/05/09 03:51:15;;;;;;;37.83;23.65;;;;;;;;;;4439175;32;20025;-67
2023/05/09 03:53:40;;;;;;;35.58;23.70;;;;;;;;;;4463030;32;20029;-68
2023/05/09 03:56:06;;;;;;;37.47;26.27;;;;;;;;;;4439102;32;20117;-67
2023/05/09 03:58:31;;;;;;;34.47;23.27;;;;;;;;;;4452273;32;20048;-68
2023/05/09 04:00:56;;;;;;;35.40;25.08;;;;;;;;;;4451529;32;20044;-68
2023/05/09 04:03:22;;;;;;;45.75;27.98;;;;;;;;;;4453028;32;20392;-68
2023/05/09 04:05:47;;;;;;;39.40;25.15;;;;;;;;;;4453015;32;20022;-68
2023/05/09 04:08:12;;;;;;;42.08;28.23;;;;;;;;;;4437461;32;20146;-68
2023/05/09 04:10:37;;;;;;;45.25;28.33;;;;;;;;;;4453162;32;20375;-68
2023/05/09 04:13:03;;;;;;;33.13;24.90;;;;;;;;;;4451516;32;20485;-68
2023/05/09 04:15:28;;;;;;;37.25;27.58;;;;;;;;;;4453310;32;20043;-68
2023/05/09 04:17:53;;;;;;;40.80;27.00;;;;;;;;;;4453004;32;20014;-68
2023/05/09 04:20:18;;;;;;;42.10;25.30;;;;;;;;;;4454936;32;20089;-67
2023/05/09 04:22:43;;;;;;;39.70;25.80;;;;;;;;;;4451217;32;20104;-67
2023/05/09 04:25:13;;;;;;;46.65;27.67;;;;;;;;;;4452497;32;20034;-67
2023/05/09 04:27:38;;;;;;;37.92;26.10;;;;;;;;;;4452964;32;20328;-67
2023/05/09 04:30:04;;;;;;;38.47;26.67;;;;;;;;;;4452111;32;20024;-66
2023/05/09 04:32:29;;;;;;;34.92;24.27;;;;;;;;;;4458759;32;20021;-67
2023/05/09 04:34:54;;;;;;;37.40;26.17;;;;;;;;;;4466584;32;20033;-67
2023/05/09 04:37:19;;;;;;;39.38;25.50;;;;;;;;;;4468330;32;20013;-67
2023/05/09 04:39:45;;;;;;;40.08;25.33;;;;;;;;;;4468239;32;20116;-68
2023/05/09 04:42:10;;;;;;;36.60;25.50;;;;;;;;;;4467110;32;20044;-67
2023/05/09 04:44:35;;;;;;;37.92;24.83;;;;;;;;;;4466920;32;20169;-67
2023/05/09 04:47:00;;;;;;;38.80;27.20;;;;;;;;;;4466267;32;20017;-67
2023/05/09 04:49:26;;;;;;;39.78;25.20;;;;;;;;;;4466676;32;20080;-68
2023/05/09 04:51:51;;;;;;;43.35;26.00;;;;;;;;;;4467289;32;20021;-68
2023/05/09 04:54:16;;;;;;;38.28;24.35;;;;;;;;;;4456288;32;20029;-68
2023/05/09 04:56:41;;;;;;;35.60;26.03;;;;;;;;;;4451932;32;20044;-68
2023/05/09 04:59:06;;;;;;;37.70;25.62;;;;;;;;;;4463554;32;20546;-68
2023/05/09 05:01:32;;;;;;;37.97;25.17;;;;;;;;;;4462189;32;20013;-69
2023/05/09 05:03:57;;;;;;;40.97;26.97;;;;;;;;;;4450976;32;20116;-68
2023/05/09 05:06:22;;;;;;;38.08;25.20;;;;;;;;;;4451934;32;20582;-67
2023/05/09 05:08:47;;;;;;;33.72;24.45;;;;;;;;;;4452026;32;20048;-67
2023/05/09 05:11:12;;;;;;;37.92;25.50;;;;;;;;;;4452581;32;20022;-67
2023/05/09 05:13:38;;;;;;;38.13;25.75;;;;;;;;;;4437479;32;20082;-68
2023/05/09 05:16:03;;;;;;;39.25;24.27;;;;;;;;;;4450815;32;20126;-68
2023/05/09 05:18:28;;;;;;;40.75;26.73;;;;;;;;;;4450748;32;20128;-68
2023/05/09 05:20:53;;;;;;;35.15;23.83;;;;;;;;;;4454803;32;20048;-68
2023/05/09 05:23:18;;;;;;;42.03;23.42;;;;;;;;;;4454325;32;20059;-68
2023/05/09 05:25:44;;;;;;;41.65;25.20;;;;;;;;;;4455601;32;20484;-67
2023/05/09 05:28:09;;;;;;;38.65;25.33;;;;;;;;;;4455026;32;20112;-68
2023/05/09 05:30:34;;;;;;;37.95;24.15;;;;;;;;;;4459419;32;20025;-68
2023/05/09 05:32:59;;;;;;;29.23;21.60;;;;;;;;;;4461309;32;20040;-68
2023/05/09 05:35:27;;;;;;;32.78;21.75;;;;;;;;;;4459357;32;20124;-67
2023/05/09 05:37:52;;;;;;;28.62;21.33;;;;;;;;;;4463315;32;20029;-68
2023/05/09 05:40:17;;;;;;;38.33;23.13;;;;;;;;;;4470432;32;20372;-68
2023/05/09 05:42:43;;;;;;;36.03;22.87;;;;;;;;;;4468665;32;20150;-68
2023/05/09 05:45:08;;;;;;;33.38;22.25;;;;;;;;;;4454394;32;20021;-67
2023/05/09 05:47:34;;;;;;;31.48;22.73;;;;;;;;;;4470753;32;20041;-68
2023/05/09 05:49:59;;;;;;;31.42;21.27;;;;;;;;;;4453641;32;20098;-67
2023/05/09 05:52:25;;;;;;;35.65;23.08;;;;;;;;;;4456462;32;20037;-67
2023/05/09 05:54:51;;;;;;;34.97;23.65;;;;;;;;;;4458551;32;20025;-67
2023/05/09 05:57:16;;;;;;;35.50;23.70;;;;;;;;;;4454389;32;20063;-67
2023/05/09 05:59:41;;;;;;;37.88;23.85;;;;;;;;;;4452832;32;20089;-67
2023/05/09 06:02:06;;;;;;;36.90;22.27;;;;;;;;;;4442163;32;20089;-68
2023/05/09 06:04:32;;;;;;;27.35;19.90;;;;;;;;;;4453616;32;20034;-68
2023/05/09 06:06:57;;;;;;;34.25;24.30;;;;;;;;;;4454033;32;20020;-67
2023/05/09 06:09:22;;;;;;;35.63;22.73;;;;;;;;;;4452112;32;20422;-67
2023/05/09 06:11:47;;;;;;;34.00;22.75;;;;;;;;;;4453653;32;20017;-67
2023/05/09 06:14:12;;;;;;;27.37;20.92;;;;;;;;;;4453068;32;20093;-68
2023/05/09 06:16:38;;;;;;;33.13;22.87;;;;;;;;;;4451971;32;20093;-68
2023/05/09 06:19:03;;;;;;;30.62;22.83;;;;;;;;;;4452436;32;20021;-69
2023/05/09 06:21:29;;;;;;;38.28;23.65;;;;;;;;;;4453934;32;20022;-67
2023/05/09 06:23:54;;;;;;;31.00;22.48;;;;;;;;;;4453313;32;20122;-69
2023/05/09 06:26:19;;;;;;;36.40;24.35;;;;;;;;;;4451744;32;20025;-68
2023/05/09 06:28:44;;;;;;;30.80;22.75;;;;;;;;;;4452750;32;20323;-69
2023/05/09 06:31:09;;;;;;;33.28;23.23;;;;;;;;;;4451506;32;20017;-70
2023/05/09 06:33:35;;;;;;;43.15;24.92;;;;;;;;;;4454566;32;20102;-69
2023/05/09 06:36:00;;;;;;;30.85;23.35;;;;;;;;;;4453919;32;20043;-69
2023/05/09 06:38:25;;;;;;;32.65;24.75;;;;;;;;;;4451938;32;20092;-69
2023/05/09 06:40:50;;;;;;;38.78;24.10;;;;;;;;;;4453791;32;20139;-69
2023/05/09 06:43:15;;;;;;;34.08;24.48;;;;;;;;;;4452857;32;20265;-69
2023/05/09 06:45:41;;;;;;;32.00;23.20;;;;;;;;;;4453829;32;20021;-68
2023/05/09 06:48:06;;;;;;;36.75;24.60;;;;;;;;;;4453014;32;20033;-68
2023/05/09 06:50:31;;;;;;;31.92;24.12;;;;;;;;;;4452687;32;20040;-70
2023/05/09 06:52:56;;;;;;;33.92;23.08;;;;;;;;;;4453287;32;20036;-69
2023/05/09 06:55:22;;;;;;;33.95;24.50;;;;;;;;;;4453806;32;20410;-69
2023/05/09 06:57:47;;;;;;;29.35;21.50;;;;;;;;;;4451843;32;20013;-69
2023/05/09 07:00:12;;;;;;;33.53;23.48;;;;;;;;;;4455123;32;20047;-68
2023/05/09 07:02:40;;;;;;;38.47;23.90;;;;;;;;;;4453960;32;20042;-68
2023/05/09 07:05:06;;;;;;;30.48;23.38;;;;;;;;;;4452196;32;20167;-69
2023/05/09 07:07:31;;;;;;;33.95;24.17;;;;;;;;;;4452199;32;20017;-68
2023/05/09 07:09:59;;;;;;;26.42;21.98;;;;;;;;;;4451830;32;20074;-68
2023/05/09 07:12:25;;;;;;;40.28;25.80;;;;;;;;;;4453307;32;20026;-69
2023/05/09 07:14:50;;;;;;;39.65;25.42;;;;;;;;;;4451712;32;20102;-70
2023/05/09 07:17:15;;;;;;;39.20;26.15;;;;;;;;;;4451556;32;20076;-70
2023/05/09 07:19:40;;;;;;;43.22;26.27;;;;;;;;;;4455136;32;20402;-68
2023/05/09 07:22:05;;;;;;;34.17;25.83;;;;;;;;;;4453693;32;20079;-68
2023/05/09 07:24:30;;;;;;;34.22;24.92;;;;;;;;;;4468160;32;20168;-68
2023/05/09 07:26:55;;;;;;;34.33;25.42;;;;;;;;;;4463704;32;20087;-68
2023/05/09 07:29:21;;;;;;;36.60;24.58;;;;;;;;;;4452121;32;20150;-69
2023/05/09 07:31:46;;;;;;;36.08;25.60;;;;;;;;;;4453714;32;20323;-69
2023/05/09 07:34:11;;;;;;;35.63;25.30;;;;;;;;;;4453220;32;20063;-68
2023/05/09 07:36:37;;;;;;;41.17;28.70;;;;;;;;;;4453651;32;20043;-68
2023/05/09 07:39:03;;;;;;;36.92;26.40;;;;;;;;;;4453135;32;20052;-68
2023/05/09 07:41:28;;;;;;;35.13;23.50;;;;;;;;;;4453223;32;20029;-68
2023/05/09 07:43:54;;;;;;;35.22;24.48;;;;;;;;;;4452283;32;20405;-68
2023/05/09 07:46:19;;;;;;;34.35;23.38;;;;;;;;;;4451471;32;20017;-68
2023/05/09 07:48:44;;;;;;;35.80;23.38;;;;;;;;;;4451151;32;20376;-68
2023/05/09 07:51:09;;;;;;;28.67;22.95;;;;;;;;;;4452264;32;20120;-68
2023/05/09 07:53:35;;;;;;;34.67;24.80;;;;;;;;;;4450919;32;20064;-68
2023/05/09 07:56:00;;;;;;;36.20;25.60;;;;;;;;;;4452124;32;20101;-69
2023/05/09 07:58:25;;;;;;;32.25;25.83;;;;;;;;;;4452353;32;20366;-68
2023/05/09 08:00:50;;;;;;;41.35;26.85;;;;;;;;;;4451124;32;20025;-68
2023/05/09 08:03:15;;;;;;;39.13;28.23;;;;;;;;;;4451138;32;20140;-69
2023/05/09 08:05:41;;;;;;;41.08;28.62;;;;;;;;;;4453425;32;20116;-68
2023/05/09 08:08:06;;;;;;;41.30;28.12;;;;;;;;;;4453038;32;20021;-69
2023/05/09 08:10:32;;;;;;;37.05;27.15;;;;;;;;;;4438679;32;20022;-69
2023/05/09 08:12:57;;;;;;;40.92;27.42;;;;;;;;;;4452820;32;20033;-69
2023/05/09 08:15:22;;;;;;;38.63;28.20;;;;;;;;;;4452470;32;20047;-69
2023/05/09 08:17:48;;;;;;;35.53;27.67;;;;;;;;;;4452909;32;20021;-68
2023/05/09 08:20:13;;;;;;;34.83;26.80;;;;;;;;;;4452941;32;20021;-68
2023/05/09 08:22:39;;;;;;;31.05;26.12;;;;;;;;;;4452720;32;20481;-68
2023/05/09 08:25:04;;;;;;;31.70;22.83;;;;;;;;;;4455292;32;20060;-68
2023/05/09 08:27:29;;;;;;;34.28;22.65;;;;;;;;;;4451228;32;20033;-68
2023/05/09 08:29:54;;;;;;;24.87;20.75;;;;;;;;;;4458885;32;20037;-68
2023/05/09 08:32:20;;;;;;;27.77;22.10;;;;;;;;;;4466810;32;20095;-67
2023/05/09 08:34:45;;;;;;;25.50;22.05;;;;;;;;;;4460910;32;20167;-67
2023/05/09 08:37:10;;;;;;;22.00;18.98;;;;;;;;;;4452247;32;20038;-68
2023/05/09 08:39:35;;;;;;;25.55;20.55;;;;;;;;;;4452379;32;20566;-68
2023/05/09 08:42:01;;;;;;;23.77;20.15;;;;;;;;;;4451660;32;20224;-68
2023/05/09 08:44:28;;;;;;;25.85;18.90;;;;;;;;;;4452546;32;20060;-67
2023/05/09 08:47:00;;;;;;;27.17;19.70;;;;;;;;;;4450897;32;20391;-67
2023/05/09 08:49:25;;;;;;;23.98;18.00;;;;;;;;;;4454670;32;20104;-69
2023/05/09 08:51:51;;;;;;;23.27;17.65;;;;;;;;;;4466139;32;20489;-68
2023/05/09 08:54:16;;;;;;;20.30;14.63;;;;;;;;;;4464019;32;20068;-69
2023/05/09 08:56:41;;;;;;;19.00;14.77;;;;;;;;;;4457405;32;20021;-68
2023/05/09 08:59:06;;;;;;;17.65;14.70;;;;;;;;;;4466463;32;20029;-68
2023/05/09 09:01:32;;;;;;;17.35;13.45;;;;;;;;;;4451375;32;20055;-69
2023/05/09 09:03:57;;;;;;;15.38;12.25;;;;;;;;;;4450788;32;20017;-69
2023/05/09 09:06:24;;;;;;;23.05;15.32;;;;;;;;;;4452462;32;20021;-68
2023/05/09 09:08:49;;;;;;;15.73;12.60;;;;;;;;;;4452027;32;20089;-67
2023/05/09 09:11:16;;;;;;;19.15;13.98;;;;;;;;;;4450848;32;20438;-67
2023/05/09 09:13:42;;;;;;;13.85;11.23;;;;;;;;;;4465465;32;20017;-68
2023/05/09 09:16:10;;;;;;;17.25;12.65;;;;;;;;;;4465401;32;20053;-68
2023/05/09 09:18:35;;;;;;;18.05;13.90;;;;;;;;;;4467758;32;20025;-68
2023/05/09 09:21:08;;;;;;;19.05;14.35;;;;;;;;;;4440348;32;20073;-68
2023/05/09 09:23:36;;;;;;;18.27;14.60;;;;;;;;;;4452164;32;20068;-68
2023/05/09 09:26:03;;;;;;;18.98;15.23;;;;;;;;;;4460443;32;20039;-68
2023/05/09 09:28:28;;;;;;;21.20;16.42;;;;;;;;;;4451229;32;20115;-67
2023/05/09 09:30:54;;;;;;;24.05;16.58;;;;;;;;;;4452341;32;20065;-68
2023/05/09 09:33:20;;;;;;;21.95;16.37;;;;;;;;;;4452168;32;20350;-67
2023/05/09 09:35:46;;;;;;;19.48;15.15;;;;;;;;;;4450938;32;20067;-68
2023/05/09 09:38:11;;;;;;;19.42;14.85;;;;;;;;;;4452353;32;20124;-68
2023/05/09 09:40:39;;;;;;;17.35;14.38;;;;;;;;;;4450950;32;20021;-69
2023/05/09 09:43:05;;;;;;;20.62;14.13;;;;;;;;;;4452645;32;20600;-68
2023/05/09 09:45:31;;;;;;;20.80;15.88;;;;;;;;;;4452968;32;20026;-68
2023/05/09 09:47:56;;;;;;;21.52;15.77;;;;;;;;;;4450308;32;20065;-68
2023/05/09 09:50:24;;;;;;;19.30;16.70;;;;;;;;;;4452504;32;20418;-68
2023/05/09 09:52:50;;;;;;;21.45;15.15;;;;;;;;;;4451869;32;20147;-67
2023/05/09 09:55:19;;;;;;;21.60;16.73;;;;;;;;;;4450729;32;20079;-68
2023/05/09 09:57:45;;;;;;;19.58;16.92;;;;;;;;;;4451632;32;20013;-68
2023/05/09 10:00:11;;;;;;;22.20;18.62;;;;;;;;;;4451977;32;20051;-69
2023/05/09 10:02:50;;;;;;;21.95;17.33;;;;;;;;;;4450197;32;20524;-68
2023/05/09 10:05:22;;;;;;;22.70;18.20;;;;;;;;;;4449878;32;20021;-68
2023/05/09 10:07:58;;;;;;;22.45;18.40;;;;;;;;;;4452419;32;20067;-69
2023/05/09 10:10:30;;;;;;;26.03;18.90;;;;;;;;;;4454394;32;20049;-68
2023/05/09 10:12:57;;;;;;;20.67;16.75;;;;;;;;;;4452714;32;20139;-68
2023/05/09 10:15:22;;;;;;;24.08;19.58;;;;;;;;;;4452010;32;20487;-70
2023/05/09 10:17:50;;;;;;;23.58;17.05;;;;;;;;;;4454389;32;20021;-69
2023/05/09 10:20:16;;;;;;;25.15;19.48;;;;;;;;;;4453892;32;20098;-70
2023/05/09 10:22:41;;;;;;;21.10;17.70;;;;;;;;;;4453805;32;20399;-69
2023/05/09 10:25:11;;;;;;;23.12;17.67;;;;;;;;;;4454332;32;20052;-70
2023/05/09 10:27:37;;;;;;;21.35;17.52;;;;;;;;;;4454556;32;20090;-69
2023/05/09 10:30:12;;;;;;;28.38;18.10;;;;;;;;;;4453409;32;20018;-69
2023/05/09 10:32:40;;;;;;;18.77;15.95;;;;;;;;;;4438413;32;20017;-70
2023/05/09 10:35:06;;;;;;;21.90;16.35;;;;;;;;;;4452080;32;20021;-69
2023/05/09 10:37:32;;;;;;;17.20;15.38;;;;;;;;;;4454022;32;20094;-70
2023/05/09 10:39:58;;;;;;;19.23;16.92;;;;;;;;;;4454167;32;20149;-68
2023/05/09 10:42:24;;;;;;;20.48;17.12;;;;;;;;;;4452556;32;20299;-68
2023/05/09 10:44:50;;;;;;;19.67;16.77;;;;;;;;;;4451774;32;20018;-68
2023/05/09 10:47:15;;;;;;;20.75;17.20;;;;;;;;;;4453300;32;20021;-70
2023/05/09 10:49:41;;;;;;;18.27;16.37;;;;;;;;;;4452222;32;20430;-69
2023/05/09 10:52:07;;;;;;;19.87;17.23;;;;;;;;;;4452584;32;20024;-68
2023/05/09 10:54:35;;;;;;;19.23;16.83;;;;;;;;;;4451607;32;20030;-69
2023/05/09 10:57:00;;;;;;;19.30;16.10;;;;;;;;;;4454125;32;20407;-68
2023/05/09 10:59:36;;;;;;;19.15;16.98;;;;;;;;;;4451403;32;20135;-69
2023/05/09 11:02:02;;;;;;;23.35;17.58;;;;;;;;;;4452831;32;20403;-69
2023/05/09 11:04:28;;;;;;;25.65;17.55;;;;;;;;;;4452374;32;20040;-69
2023/05/09 11:06:53;;;;;;;22.73;17.85;;;;;;;;;;4452673;32;20391;-69
2023/05/09 11:09:26;;;;;;;20.10;17.52;;;;;;;;;;4452635;32;20017;-69
2023/05/09 11:12:12;;;;;;;20.30;18.15;;;;;;;;;;4452586;32;20052;-69
2023/05/09 11:14:44;;;;;;;20.35;18.10;;;;;;;;;;4451911;32;20040;-68
2023/05/09 11:17:09;;;;;;;20.25;18.08;;;;;;;;;;4452821;32;20014;-69
2023/05/09 11:19:37;;;;;;;20.58;17.77;;;;;;;;;;4452903;32;20022;-68
2023/05/09 11:22:09;;;;;;;20.50;18.33;;;;;;;;;;4453244;32;20025;-69
2023/05/09 11:24:36;;;;;;;22.13;19.33;;;;;;;;;;4452032;32;20418;-68
2023/05/09 11:27:04;;;;;;;24.90;19.17;;;;;;;;;;4452112;32;20047;-69
2023/05/09 11:29:41;;;;;;;21.08;18.92;;;;;;;;;;4450810;32;20017;-69
2023/05/09 11:32:06;;;;;;;20.10;17.35;;;;;;;;;;4452865;32;20119;-68
2023/05/09 11:34:32;;;;;;;20.17;17.10;;;;;;;;;;4453673;32;20021;-68
2023/05/09 11:37:15;;;;;;;20.45;18.30;;;;;;;;;;4467653;32;20029;-68
2023/05/09 11:39:59;;;;;;;20.80;18.20;;;;;;;;;;4469514;32;20386;-69
2023/05/09 11:42:28;;;;;;;22.58;19.40;;;;;;;;;;4467260;32;20021;-69
2023/05/09 11:44:53;;;;;;;22.45;20.12;;;;;;;;;;4454788;32;20070;-69
2023/05/09 11:47:19;;;;;;;24.33;20.52;;;;;;;;;;4451425;32;20115;-68
2023/05/09 11:49:44;;;;;;;24.12;20.67;;;;;;;;;;4451815;32;20389;-69
2023/05/09 11:52:10;;;;;;;21.52;19.33;;;;;;;;;;4452706;32;20014;-69
2023/05/09 11:54:38;;;;;;;21.92;19.08;;;;;;;;;;4451839;32;20020;-68
2023/05/09 11:57:04;;;;;;;23.87;19.50;;;;;;;;;;4453242;32;20021;-68
2023/05/09 11:59:29;;;;;;;22.42;17.80;;;;;;;;;;4451536;32;20048;-68
2023/05/09 12:01:54;;;;;;;21.05;18.85;;;;;;;;;;4452564;32;20037;-69
2023/05/09 12:04:20;;;;;;;18.02;16.12;;;;;;;;;;4451697;32;20084;-69
2023/05/09 12:06:48;;;;;;;18.83;17.10;;;;;;;;;;4452239;32;20048;-69
2023/05/09 12:09:15;;;;;;;19.23;16.92;;;;;;;;;;4452567;32;20355;-68
2023/05/09 12:11:46;;;;;;;20.42;18.37;;;;;;;;;;4451221;32;20423;-69
2023/05/09 12:14:24;;;;;;;22.65;20.45;;;;;;;;;;4438783;32;20022;-68
2023/05/09 12:16:49;;;;;;;19.98;17.87;;;;;;;;;;4453404;32;20025;-68
2023/05/09 12:19:17;;;;;;;18.67;16.62;;;;;;;;;;4451059;32;20033;-70
2023/05/09 12:21:42;;;;;;;21.08;19.08;;;;;;;;;;4438590;32;20125;-69
2023/05/09 12:24:07;;;;;;;18.70;16.83;;;;;;;;;;4452684;32;20327;-69
2023/05/09 12:26:32;;;;;;;16.98;15.18;;;;;;;;;;4453242;32;20380;-69
2023/05/09 12:28:57;;;;;;;16.27;14.57;;;;;;;;;;4451304;32;20021;-69
2023/05/09 12:31:23;;;;;;;13.93;12.48;;;;;;;;;;4437131;32;20025;-69
2023/05/09 12:33:48;;;;;;;12.90;11.25;;;;;;;;;;4450753;32;20047;-69
2023/05/09 12:36:15;;;;;;;11.73;10.00;;;;;;;;;;4452290;32;20096;-69
2023/05/09 12:38:50;;;;;;;12.05;9.35;;;;;;;;;;4453075;32;20481;-69
2023/05/09 12:41:17;;;;;;;8.90;7.83;;;;;;;;;;4452592;32;20033;-69
2023/05/09 12:43:46;;;;;;;8.43;7.05;;;;;;;;;;4452577;32;20030;-69
2023/05/09 12:46:11;;;;;;;6.65;5.95;;;;;;;;;;4451081;32;20085;-69
2023/05/09 12:48:37;;;;;;;6.95;5.68;;;;;;;;;;4451929;32;20125;-70
2023/05/09 12:51:06;;;;;;;8.38;5.78;;;;;;;;;;4451244;32;20440;-70
2023/05/09 12:53:35;;;;;;;8.52;6.12;;;;;;;;;;4450652;32;20335;-69
2023/05/09 12:56:02;;;;;;;6.87;6.15;;;;;;;;;;4450951;32;20056;-68
2023/05/09 12:58:31;;;;;;;7.80;5.35;;;;;;;;;;4450735;32;20025;-68
2023/05/09 13:00:56;;;;;;;5.57;4.95;;;;;;;;;;4450903;32;20442;-69
2023/05/09 13:03:23;;;;;;;10.63;6.47;;;;;;;;;;4450862;32;20037;-69
2023/05/09 13:05:56;;;;;;;8.25;6.70;;;;;;;;;;4450410;32;20017;-70
2023/05/09 13:08:21;;;;;;;8.82;7.00;;;;;;;;;;4450943;32;20024;-68
2023/05/09 13:10:46;;;;;;;8.30;7.10;;;;;;;;;;4450920;32;20091;-69
2023/05/09 13:13:15;;;;;;;8.38;5.95;;;;;;;;;;4450996;32;20070;-70
2023/05/09 13:15:40;;;;;;;8.80;7.55;;;;;;;;;;4450805;32;20098;-69
2023/05/09 13:18:06;;;;;;;8.75;6.55;;;;;;;;;;4452481;32;20428;-69
2023/05/09 13:20:31;;;;;;;6.62;5.72;;;;;;;;;;4450129;32;20091;-70
2023/05/09 13:22:56;;;;;;;8.35;6.40;;;;;;;;;;4451817;32;20349;-69
2023/05/09 13:25:21;;;;;;;7.40;6.70;;;;;;;;;;4451746;32;20074;-69
2023/05/09 13:27:47;;;;;;;7.00;6.30;;;;;;;;;;4452364;32;20440;-69
2023/05/09 13:30:14;;;;;;;10.13;7.82;;;;;;;;;;4450427;32;20040;-70
2023/05/09 13:32:39;;;;;;;9.07;7.10;;;;;;;;;;4436932;32;20354;-69
2023/05/09 13:35:06;;;;;;;8.35;6.97;;;;;;;;;;4452376;32;20033;-69
2023/05/09 13:37:32;;;;;;;9.15;7.03;;;;;;;;;;4452446;32;20047;-69
2023/05/09 13:39:57;;;;;;;7.07;6.37;;;;;;;;;;4450983;32;20335;-69
2023/05/09 13:42:22;;;;;;;5.55;4.65;;;;;;;;;;4454378;32;20052;-69
2023/05/09 13:44:47;;;;;;;5.22;4.72;;;;;;;;;;4454029;32;20095;-69
2023/05/09 13:47:12;;;;;;;6.62;5.18;;;;;;;;;;4453733;32;20017;-70
2023/05/09 13:49:38;;;;;;;8.55;6.43;;;;;;;;;;4452826;32;20038;-70
2023/05/09 13:52:03;;;;;;;5.82;5.22;;;;;;;;;;4454462;32;20046;-70
2023/05/09 13:54:33;;;;;;;10.85;5.85;;;;;;;;;;4453814;32;20445;-70
2023/05/09 13:57:00;;;;;;;4.95;4.30;;;;;;;;;;4454965;32;20052;-69
2023/05/09 13:59:25;;;;;;;7.07;4.97;;;;;;;;;;4466858;32;20033;-68
2023/05/09 14:01:50;;;;;;;5.72;5.00;;;;;;;;;;4468659;32;20055;-69
2023/05/09 14:04:15;;;;;;;4.75;4.15;;;;;;;;;;4470102;32;20180;-69
2023/05/09 14:06:46;;;;;;;5.70;4.35;;;;;;;;;;4469801;32;20473;-70
2023/05/09 14:09:12;;;;;;;5.57;4.35;;;;;;;;;;4458172;32;20033;-71
2023/05/09 14:11:37;;;;;;;6.35;5.55;;;;;;;;;;4452293;32;20441;-70
2023/05/09 14:14:02;;;;;;;7.10;5.20;;;;;;;;;;4453660;32;20041;-68
2023/05/09 14:16:27;;;;;;;7.15;5.82;;;;;;;;;;4454101;32;20120;-69